createdAt,value
2022-10-05T00:01:06.194Z,1006.8
2022-10-05T00:04:05.126Z,1006.8
2022-10-05T00:07:05.084Z,1006.8
2022-10-05T00:09:05.116Z,1006.8
2022-10-05T00:12:06.118Z,1006.8
2022-10-05T00:15:05.090Z,1006.8
2022-10-05T00:17:05.107Z,1006.8
2022-10-05T00:19:05.097Z,1006.9
2022-10-05T00:22:05.064Z,1006.8
2022-10-05T00:24:05.112Z,1006.8
2022-10-05T00:27:05.093Z,1006.8
2022-10-05T00:30:05.074Z,1006.8
2022-10-05T00:32:05.134Z,1006.8
2022-10-05T00:35:05.104Z,1006.8
2022-10-05T00:38:05.077Z,1006.7
2022-10-05T00:40:05.094Z,1006.8
2022-10-05T00:43:05.100Z,1006.7
2022-10-05T00:46:05.105Z,1006.7
2022-10-05T00:48:05.099Z,1006.6
2022-10-05T00:51:05.138Z,1006.6
2022-10-05T00:54:05.083Z,1006.6
2022-10-05T00:57:05.083Z,1006.6
2022-10-05T00:59:05.135Z,1006.5
2022-10-05T01:02:05.209Z,1006.4
2022-10-05T01:04:12.275Z,1006.4
2022-10-05T01:07:05.084Z,1006.4
2022-10-05T01:09:05.091Z,1006.3
2022-10-05T01:11:15.382Z,1006.3
2022-10-05T01:14:15.416Z,1006.3
2022-10-05T01:17:05.063Z,1006.3
2022-10-05T01:19:05.066Z,1006.4
2022-10-05T01:21:05.180Z,1006.4
2022-10-05T01:24:05.082Z,1006.4
2022-10-05T01:27:05.056Z,1006.4
2022-10-05T01:29:05.082Z,1006.4
2022-10-05T01:32:05.094Z,1006.4
2022-10-05T01:34:09.204Z,1006.4
2022-10-05T01:37:05.091Z,1006.3
2022-10-05T01:40:05.099Z,1006.4
2022-10-05T01:42:05.119Z,1006.4
2022-10-05T01:45:05.167Z,1006.4
2022-10-05T01:48:05.120Z,1006.4
2022-10-05T01:51:05.071Z,1006.4
2022-10-05T01:53:05.149Z,1006.4
2022-10-05T01:56:05.133Z,1006.5
2022-10-05T01:59:05.080Z,1006.5
2022-10-05T02:01:05.117Z,1006.5
2022-10-05T02:05:05.094Z,1006.5
2022-10-05T02:08:05.189Z,1006.5
2022-10-05T02:11:05.096Z,1006.4
2022-10-05T02:13:05.135Z,1006.5
2022-10-05T02:16:05.228Z,1006.4
2022-10-05T02:19:05.108Z,1006.4
2022-10-05T02:21:05.105Z,1006.4
2022-10-05T02:23:05.109Z,1006.3
2022-10-05T02:25:05.129Z,1006.3
2022-10-05T02:28:05.158Z,1006.3
2022-10-05T02:31:05.176Z,1006.3
2022-10-05T02:33:05.109Z,1006.2
2022-10-05T02:36:05.121Z,1006.2
2022-10-05T02:39:05.090Z,1006.1
2022-10-05T02:41:05.119Z,1006.1
2022-10-05T02:44:05.093Z,1006.1
2022-10-05T02:46:05.193Z,1006.1
2022-10-05T02:48:05.127Z,1006
2022-10-05T02:51:05.111Z,1006.1
2022-10-05T02:54:05.072Z,1006
2022-10-05T02:56:05.106Z,1006
2022-10-05T02:59:05.084Z,1006.1
2022-10-05T03:01:05.143Z,1006.1
2022-10-05T03:04:05.117Z,1006
2022-10-05T03:07:05.125Z,1005.9
2022-10-05T03:09:05.106Z,1005.9
2022-10-05T03:12:05.102Z,1005.9
2022-10-05T03:15:05.127Z,1005.9
2022-10-05T03:18:05.100Z,1005.8
2022-10-05T03:20:05.125Z,1005.8
2022-10-05T03:22:05.157Z,1005.7
2022-10-05T03:25:05.131Z,1005.7
2022-10-05T03:28:05.197Z,1005.7
2022-10-05T03:31:05.156Z,1005.7
2022-10-05T03:33:05.139Z,1005.6
2022-10-05T03:36:05.120Z,1005.7
2022-10-05T03:39:05.085Z,1005.7
2022-10-05T03:41:05.138Z,1005.7
2022-10-05T03:44:05.135Z,1005.8
2022-10-05T03:47:05.154Z,1005.9
2022-10-05T03:49:05.227Z,1005.8
2022-10-05T03:52:05.107Z,1005.8
2022-10-05T03:55:05.118Z,1005.9
2022-10-05T03:57:05.136Z,1006
2022-10-05T04:00:05.113Z,1006
2022-10-05T04:03:05.108Z,1006
2022-10-05T04:05:05.126Z,1006
2022-10-05T04:08:05.121Z,1006
2022-10-05T04:11:05.175Z,1006
2022-10-05T04:13:05.246Z,1006
2022-10-05T04:16:05.194Z,1006
2022-10-05T04:19:05.106Z,1006
2022-10-05T04:21:05.128Z,1006
2022-10-05T04:24:05.116Z,1006
2022-10-05T04:27:05.131Z,1006
2022-10-05T04:29:05.125Z,1005.9
2022-10-05T04:32:05.124Z,1005.9
2022-10-05T04:35:05.129Z,1006
2022-10-05T04:38:05.086Z,1006
2022-10-05T04:40:05.092Z,1006.1
2022-10-05T04:42:05.111Z,1006.1
2022-10-05T04:45:05.079Z,1006.1
2022-10-05T04:47:05.166Z,1006.1
2022-10-05T04:50:05.076Z,1006.1
2022-10-05T04:52:05.098Z,1006.1
2022-10-05T04:54:05.121Z,1006
2022-10-05T04:57:05.124Z,1006
2022-10-05T05:00:05.123Z,1006
2022-10-05T05:03:05.138Z,1006.1
2022-10-05T05:06:16.690Z,1006.1
2022-10-05T05:09:05.077Z,1006.2
2022-10-05T05:12:05.092Z,1006.1
2022-10-05T05:14:05.138Z,1006.1
2022-10-05T05:17:06.753Z,1006.1
2022-10-05T05:19:05.123Z,1006.1
2022-10-05T05:22:05.133Z,1006.1
2022-10-05T05:25:05.094Z,1006.2
2022-10-05T05:27:05.098Z,1006.2
2022-10-05T05:30:05.223Z,1006.3
2022-10-05T05:33:05.095Z,1006.3
2022-10-05T05:35:05.160Z,1006.3
2022-10-05T05:38:05.125Z,1006.3
2022-10-05T05:40:05.139Z,1006.4
2022-10-05T05:42:05.346Z,1006.5
2022-10-05T05:45:05.205Z,1006.5
2022-10-05T05:48:05.091Z,1006.6
2022-10-05T05:50:07.223Z,1006.6
2022-10-05T05:53:06.194Z,1006.7
2022-10-05T05:56:05.122Z,1006.8
2022-10-05T05:58:05.141Z,1006.7
2022-10-05T06:01:05.146Z,1006.8
2022-10-05T06:04:05.112Z,1006.7
2022-10-05T06:06:05.146Z,1006.7
2022-10-05T06:08:05.152Z,1006.7
2022-10-05T06:10:05.294Z,1006.7
2022-10-05T06:13:05.132Z,1006.6
2022-10-05T06:15:05.143Z,1006.5
2022-10-05T06:19:05.107Z,1006.6
2022-10-05T06:21:05.133Z,1006.7
2022-10-05T06:24:05.121Z,1006.6
2022-10-05T06:26:09.812Z,1006.7
2022-10-05T06:29:05.099Z,1006.8
2022-10-05T06:31:05.142Z,1006.8
2022-10-05T06:34:05.139Z,1006.8
2022-10-05T06:37:05.117Z,1006.8
2022-10-05T06:39:05.204Z,1006.8
2022-10-05T06:42:05.136Z,1006.8
2022-10-05T06:45:05.127Z,1006.7
2022-10-05T06:47:05.112Z,1006.8
2022-10-05T06:50:05.130Z,1006.8
2022-10-05T06:53:05.134Z,1006.8
2022-10-05T06:55:05.136Z,1006.9
2022-10-05T06:58:05.170Z,1006.8
2022-10-05T07:01:05.217Z,1006.8
2022-10-05T07:03:05.132Z,1006.8
2022-10-05T07:06:05.147Z,1006.8
2022-10-05T07:09:05.109Z,1006.8
2022-10-05T07:11:05.139Z,1006.8
2022-10-05T07:13:05.160Z,1006.8
2022-10-05T07:16:05.179Z,1006.8
2022-10-05T07:19:05.115Z,1006.8
2022-10-05T07:21:05.111Z,1006.8
2022-10-05T07:23:05.149Z,1006.8
2022-10-05T07:26:05.139Z,1006.8
2022-10-05T07:28:05.208Z,1006.9
2022-10-05T07:31:05.217Z,1006.9
2022-10-05T07:34:05.194Z,1006.9
2022-10-05T07:37:05.141Z,1006.8
2022-10-05T07:39:05.109Z,1006.8
2022-10-05T07:41:05.122Z,1006.8
2022-10-05T07:44:07.774Z,1006.9
2022-10-05T07:47:05.174Z,1006.8
2022-10-05T07:50:05.148Z,1006.9
2022-10-05T07:52:05.158Z,1006.9
2022-10-05T07:55:05.158Z,1006.9
2022-10-05T07:58:05.198Z,1006.9
2022-10-05T08:00:05.169Z,1006.9
2022-10-05T08:03:05.245Z,1006.9
2022-10-05T08:06:05.219Z,1007
2022-10-05T08:08:05.179Z,1006.9
2022-10-05T08:11:05.171Z,1006.9
2022-10-05T08:14:05.118Z,1006.8
2022-10-05T08:16:05.246Z,1006.8
2022-10-05T08:19:05.122Z,1006.8
2022-10-05T08:22:05.147Z,1006.8
2022-10-05T08:24:05.139Z,1006.8
2022-10-05T08:27:05.157Z,1006.8
2022-10-05T08:29:05.160Z,1006.7
2022-10-05T08:31:05.535Z,1006.7
2022-10-05T08:34:05.121Z,1006.7
2022-10-05T08:36:05.133Z,1006.8
2022-10-05T08:38:05.154Z,1006.7
2022-10-05T08:42:05.190Z,1006.7
2022-10-05T08:44:05.158Z,1006.7
2022-10-05T08:47:05.187Z,1006.7
2022-10-05T08:49:05.178Z,1006.7
2022-10-05T08:52:05.162Z,1006.7
2022-10-05T08:54:05.149Z,1006.7
2022-10-05T08:57:05.209Z,1006.7
2022-10-05T09:00:05.130Z,1006.6
2022-10-05T09:03:05.475Z,1006.6
2022-10-05T09:06:05.172Z,1006.5
2022-10-05T09:08:05.171Z,1006.6
2022-10-05T09:11:05.190Z,1006.6
2022-10-05T09:14:05.172Z,1006.6
2022-10-05T09:17:05.158Z,1006.5
2022-10-05T09:20:05.171Z,1006.5
2022-10-05T09:23:05.151Z,1006.5
2022-10-05T09:25:05.163Z,1006.5
2022-10-05T09:28:05.200Z,1006.5
2022-10-05T09:31:05.207Z,1006.5
2022-10-05T09:33:05.218Z,1006.5
2022-10-05T09:36:05.203Z,1006.4
2022-10-05T09:39:05.167Z,1006.4
2022-10-05T09:41:05.174Z,1006.4
2022-10-05T09:43:05.164Z,1006.4
2022-10-05T09:46:05.218Z,1006.3
2022-10-05T09:49:05.155Z,1006.4
2022-10-05T09:52:05.235Z,1006.3
2022-10-05T09:55:05.173Z,1006.3
2022-10-05T09:57:05.158Z,1006.2
2022-10-05T09:59:05.220Z,1006.2
2022-10-05T10:02:05.258Z,1006.2
2022-10-05T10:05:05.178Z,1006.1
2022-10-05T10:08:05.177Z,1006.1
2022-10-05T10:10:05.149Z,1006.1
2022-10-05T10:12:05.165Z,1006
2022-10-05T10:14:05.180Z,1006
2022-10-05T10:17:05.158Z,1006
2022-10-05T10:20:05.200Z,1006
2022-10-05T10:23:05.376Z,1005.8
2022-10-05T10:26:05.885Z,1005.9
2022-10-05T10:29:05.211Z,1005.9
2022-10-05T10:31:05.411Z,1005.8
2022-10-05T10:34:05.195Z,1005.8
2022-10-05T10:37:05.152Z,1005.7
2022-10-05T10:40:05.201Z,1005.7
2022-10-05T10:43:05.147Z,1005.7
2022-10-05T10:45:05.247Z,1005.8
2022-10-05T10:47:05.190Z,1005.7
2022-10-05T10:50:05.267Z,1005.7
2022-10-05T10:53:05.214Z,1005.6
2022-10-05T10:56:05.204Z,1005.6
2022-10-05T10:58:05.215Z,1005.7
2022-10-05T11:01:05.205Z,1005.7
2022-10-05T11:04:05.173Z,1005.6
2022-10-05T11:07:05.183Z,1005.7
2022-10-05T11:10:05.179Z,1005.6
2022-10-05T11:12:05.184Z,1005.6
2022-10-05T11:15:05.202Z,1005.5
2022-10-05T11:18:05.189Z,1005.5
2022-10-05T11:20:05.584Z,1005.4
2022-10-05T11:23:05.153Z,1005.5
2022-10-05T11:25:05.196Z,1005.5
2022-10-05T11:28:05.240Z,1005.4
2022-10-05T11:31:06.207Z,1005.4
2022-10-05T11:33:05.174Z,1005.4
2022-10-05T11:35:05.211Z,1005.4
2022-10-05T11:38:05.243Z,1005.3
2022-10-05T11:41:05.260Z,1005.3
2022-10-05T11:44:06.283Z,1005.2
2022-10-05T11:46:05.296Z,1005.2
2022-10-05T11:49:05.192Z,1005.2
2022-10-05T11:52:05.202Z,1005.1
2022-10-05T11:55:10.692Z,1005.1
2022-10-05T11:57:05.207Z,1005
2022-10-05T11:59:05.167Z,1005
2022-10-05T12:01:05.225Z,1005
2022-10-05T12:05:05.188Z,1004.9
2022-10-05T12:07:05.202Z,1004.9
2022-10-05T12:10:05.271Z,1004.8
2022-10-05T12:12:05.191Z,1004.8
2022-10-05T12:15:05.214Z,1004.8
2022-10-05T12:17:05.203Z,1004.8
2022-10-05T12:20:05.245Z,1004.7
2022-10-05T12:23:05.211Z,1004.8
2022-10-05T12:26:05.257Z,1004.6
2022-10-05T12:29:05.161Z,1004.7
2022-10-05T12:31:05.220Z,1004.7
2022-10-05T12:34:05.196Z,1004.6
2022-10-05T12:37:05.587Z,1004.6
2022-10-05T12:40:05.231Z,1004.6
2022-10-05T12:42:05.242Z,1004.5
2022-10-05T12:45:05.200Z,1004.6
2022-10-05T12:47:05.226Z,1004.4
2022-10-05T12:50:05.237Z,1004.5
2022-10-05T12:53:05.222Z,1004.5
2022-10-05T12:56:05.236Z,1004.5
2022-10-05T12:58:05.245Z,1004.4
2022-10-05T13:01:05.221Z,1004.4
2022-10-05T13:03:05.208Z,1004.4
2022-10-05T13:06:05.249Z,1004.4
2022-10-05T13:09:05.173Z,1004.4
2022-10-05T13:11:05.204Z,1004.4
2022-10-05T13:13:05.301Z,1004.4
2022-10-05T13:16:05.270Z,1004.4
2022-10-05T13:21:05.257Z,1004.3
2022-10-05T13:24:05.221Z,1004.3
2022-10-05T13:26:05.278Z,1004.4
2022-10-05T13:29:05.250Z,1004.2
2022-10-05T13:32:05.185Z,1004.2
2022-10-05T13:34:05.253Z,1004.2
2022-10-05T13:37:05.227Z,1004.2
2022-10-05T13:40:05.223Z,1004.1
2022-10-05T13:42:05.241Z,1004.1
2022-10-05T13:45:05.241Z,1004.1
2022-10-05T13:48:05.203Z,1004
2022-10-05T13:50:05.401Z,1004.2
2022-10-05T13:53:05.244Z,1004.1
2022-10-05T13:56:05.210Z,1004.1
2022-10-05T13:58:05.280Z,1004.1
2022-10-05T14:01:05.221Z,1004.1
2022-10-05T14:04:05.228Z,1004.2
2022-10-05T14:06:05.280Z,1004.1
2022-10-05T14:09:05.249Z,1004.2
2022-10-05T14:12:05.207Z,1004.1
2022-10-05T14:14:05.234Z,1004.2
2022-10-05T14:17:05.214Z,1004.1
2022-10-05T14:19:05.240Z,1004
2022-10-05T14:22:05.195Z,1004
2022-10-05T14:24:08.407Z,1004.1
2022-10-05T14:26:05.233Z,1004
2022-10-05T14:29:05.236Z,1004.1
2022-10-05T14:31:05.227Z,1004
2022-10-05T14:34:05.742Z,1004
2022-10-05T14:36:05.207Z,1004
2022-10-05T14:38:06.423Z,1004
2022-10-05T14:41:05.231Z,1004
2022-10-05T14:44:05.249Z,1004
2022-10-05T14:47:05.237Z,1004
2022-10-05T14:50:05.254Z,1004
2022-10-05T14:53:05.225Z,1003.9
2022-10-05T14:56:05.248Z,1004
2022-10-05T14:59:05.220Z,1004
2022-10-05T15:02:05.291Z,1003.9
2022-10-05T15:05:05.234Z,1003.9
2022-10-05T15:07:05.244Z,1004
2022-10-05T15:09:12.488Z,1004
2022-10-05T15:12:05.269Z,1004
2022-10-05T15:15:05.236Z,1003.9
2022-10-05T15:17:05.330Z,1003.9
2022-10-05T15:19:05.263Z,1003.9
2022-10-05T15:21:05.254Z,1003.9
2022-10-05T15:23:05.741Z,1003.8
2022-10-05T15:26:05.234Z,1003.8
2022-10-05T15:28:05.301Z,1003.8
2022-10-05T15:31:05.405Z,1003.7
2022-10-05T15:34:05.233Z,1003.8
2022-10-05T15:37:05.260Z,1003.8
2022-10-05T15:39:05.283Z,1003.8
2022-10-05T15:42:05.297Z,1003.7
2022-10-05T15:45:05.296Z,1003.6
2022-10-05T15:48:05.280Z,1003.6
2022-10-05T15:50:05.286Z,1003.6
2022-10-05T15:53:05.283Z,1003.6
2022-10-05T15:56:05.252Z,1003.6
2022-10-05T15:58:05.283Z,1003.6
2022-10-05T16:01:05.385Z,1003.6
2022-10-05T16:03:05.305Z,1003.6
2022-10-05T16:06:05.262Z,1003.6
2022-10-05T16:09:05.237Z,1003.6
2022-10-05T16:11:05.351Z,1003.6
2022-10-05T16:14:05.258Z,1003.7
2022-10-05T16:16:05.339Z,1003.7
2022-10-05T16:19:05.266Z,1003.7
2022-10-05T16:21:05.305Z,1003.7
2022-10-05T16:24:05.242Z,1003.8
2022-10-05T16:26:05.274Z,1003.8
2022-10-05T16:29:05.266Z,1003.8
2022-10-05T16:31:05.366Z,1003.9
2022-10-05T16:33:06.168Z,1003.9
2022-10-05T16:36:05.298Z,1004
2022-10-05T16:39:05.304Z,1004.1
2022-10-05T16:42:05.298Z,1004.1
2022-10-05T16:45:05.304Z,1004.1
2022-10-05T16:48:05.284Z,1004.2
2022-10-05T16:50:05.298Z,1004.2
2022-10-05T16:53:05.268Z,1004.2
2022-10-05T16:56:05.279Z,1004.2
2022-10-05T16:58:05.268Z,1004.2
2022-10-05T17:01:05.351Z,1004.3
2022-10-05T17:03:05.284Z,1004.3
2022-10-05T17:06:05.269Z,1004.4
2022-10-05T17:09:05.275Z,1004.3
2022-10-05T17:11:05.275Z,1004.4
2022-10-05T17:14:05.255Z,1004.4
2022-10-05T17:16:05.386Z,1004.4
2022-10-05T17:19:05.308Z,1004.4
2022-10-05T17:21:05.281Z,1004.4
2022-10-05T17:23:05.310Z,1004.6
2022-10-05T17:26:05.285Z,1004.6
2022-10-05T17:28:05.520Z,1004.7
2022-10-05T17:31:05.355Z,1004.6
2022-10-05T17:34:05.253Z,1004.7
2022-10-05T17:36:05.266Z,1004.6
2022-10-05T17:38:05.296Z,1004.6
2022-10-05T17:40:06.436Z,1004.8
2022-10-05T17:43:05.315Z,1004.8
2022-10-05T17:46:05.322Z,1005
2022-10-05T17:48:05.352Z,1004.9
2022-10-05T17:51:05.309Z,1004.9
2022-10-05T17:54:05.300Z,1005
2022-10-05T17:57:05.289Z,1005.1
2022-10-05T18:00:05.259Z,1005
2022-10-05T18:03:05.302Z,1005.1
2022-10-05T18:06:05.283Z,1005.1
2022-10-05T18:08:05.268Z,1005.2
2022-10-05T18:10:05.330Z,1005.2
2022-10-05T18:13:05.286Z,1005.2
2022-10-05T18:15:05.278Z,1005.3
2022-10-05T18:18:05.298Z,1005.2
2022-10-05T18:20:05.292Z,1005.3
2022-10-05T18:22:05.308Z,1005.3
2022-10-05T18:25:05.958Z,1005.4
2022-10-05T18:28:06.481Z,1005.4
2022-10-05T18:31:05.371Z,1005.4
2022-10-05T18:33:05.307Z,1005.4
2022-10-05T18:35:05.309Z,1005.4
2022-10-05T18:38:05.305Z,1005.5
2022-10-05T18:41:05.332Z,1005.5
2022-10-05T18:44:05.475Z,1005.6
2022-10-05T18:47:05.277Z,1005.6
2022-10-05T18:49:06.354Z,1005.5
2022-10-05T18:52:05.331Z,1005.6
2022-10-05T18:55:05.339Z,1005.6
2022-10-05T18:58:05.333Z,1005.6
2022-10-05T19:00:05.343Z,1005.7
2022-10-05T19:03:05.301Z,1005.7
2022-10-05T19:05:05.487Z,1005.8
2022-10-05T19:08:05.308Z,1005.8
2022-10-05T19:10:05.362Z,1005.8
2022-10-05T19:13:05.329Z,1005.9
2022-10-05T19:16:06.410Z,1005.9
2022-10-05T19:19:05.291Z,1005.9
2022-10-05T19:22:05.333Z,1005.9
2022-10-05T19:24:05.315Z,1005.9
2022-10-05T19:27:05.278Z,1006
2022-10-05T19:30:05.333Z,1006
2022-10-05T19:33:05.327Z,1006
2022-10-05T19:36:05.292Z,1006.1
2022-10-05T19:38:05.365Z,1006.2
2022-10-05T19:41:05.312Z,1006.1
2022-10-05T19:44:05.308Z,1006.2
2022-10-05T19:46:05.396Z,1006.2
2022-10-05T19:49:05.323Z,1006.3
2022-10-05T19:51:05.337Z,1006.3
2022-10-05T19:53:05.342Z,1006.3
2022-10-05T19:56:05.307Z,1006.4
2022-10-05T19:58:05.358Z,1006.4
2022-10-05T20:01:05.558Z,1006.4
2022-10-05T20:04:05.342Z,1006.5
2022-10-05T20:06:05.330Z,1006.5
2022-10-05T20:09:05.318Z,1006.6
2022-10-05T20:12:05.300Z,1006.6
2022-10-05T20:14:05.341Z,1006.6
2022-10-05T20:17:05.328Z,1006.7
2022-10-05T20:20:05.371Z,1006.7
2022-10-05T20:23:05.344Z,1006.8
2022-10-05T20:25:05.332Z,1006.8
2022-10-05T20:27:05.433Z,1006.8
2022-10-05T20:29:06.351Z,1006.8
2022-10-05T20:31:05.394Z,1006.8
2022-10-05T20:34:05.330Z,1006.9
2022-10-05T20:37:05.334Z,1006.9
2022-10-05T20:40:05.317Z,1007
2022-10-05T20:42:05.361Z,1007
2022-10-05T20:45:05.349Z,1007
2022-10-05T20:48:05.319Z,1007.2
2022-10-05T20:50:05.370Z,1007.1
2022-10-05T20:53:08.420Z,1007.2
2022-10-05T20:56:05.306Z,1007.3
2022-10-05T20:58:05.340Z,1007.1
2022-10-05T21:00:05.429Z,1007.2
2022-10-05T21:03:05.328Z,1007.1
2022-10-05T21:05:05.368Z,1007.1
2022-10-05T21:07:15.605Z,1007.2
2022-10-05T21:09:15.609Z,1007.2
2022-10-05T21:12:05.336Z,1007.3
2022-10-05T21:15:05.312Z,1007.3
2022-10-05T21:17:05.359Z,1007.3
2022-10-05T21:19:05.330Z,1007.4
2022-10-05T21:22:05.328Z,1007.5
2022-10-05T21:24:05.367Z,1007.5
2022-10-05T21:26:05.362Z,1007.6
2022-10-05T21:29:09.015Z,1007.7
2022-10-05T21:31:05.373Z,1007.8
2022-10-05T21:34:05.334Z,1007.8
2022-10-05T21:36:12.528Z,1007.7
2022-10-05T21:39:05.367Z,1007.7
2022-10-05T21:41:05.363Z,1007.7
2022-10-05T21:43:05.371Z,1007.8
2022-10-05T21:46:05.465Z,1007.8
2022-10-05T21:49:05.338Z,1007.8
2022-10-05T21:51:05.351Z,1007.8
2022-10-05T21:53:05.352Z,1007.8
2022-10-05T21:55:05.402Z,1007.8
2022-10-05T21:58:05.361Z,1007.9
2022-10-05T22:00:05.361Z,1007.8
2022-10-05T22:02:05.371Z,1007.9
2022-10-05T22:04:05.406Z,1007.9
2022-10-05T22:07:05.376Z,1008
2022-10-05T22:10:05.404Z,1007.9
2022-10-05T22:12:05.437Z,1007.9
2022-10-05T22:15:05.377Z,1007.9
2022-10-05T22:18:05.324Z,1008
2022-10-05T22:22:08.648Z,1008.1
2022-10-05T22:24:05.405Z,1008.2
2022-10-05T22:27:05.347Z,1008.1
2022-10-05T22:30:05.380Z,1008.2
2022-10-05T22:33:05.384Z,1008.2
2022-10-05T22:36:05.405Z,1008.2
2022-10-05T22:38:15.646Z,1008.3
2022-10-05T22:40:15.678Z,1008.3
2022-10-05T22:43:05.393Z,1008.3
2022-10-05T22:45:05.364Z,1008.3
2022-10-05T22:48:05.345Z,1008.3
2022-10-05T22:50:05.393Z,1008.4
2022-10-05T22:53:05.343Z,1008.4
2022-10-05T22:56:05.377Z,1008.4
2022-10-05T22:58:05.403Z,1008.4
2022-10-05T23:01:05.389Z,1008.4
2022-10-05T23:03:05.364Z,1008.3
2022-10-05T23:06:05.361Z,1008.3
2022-10-05T23:09:05.366Z,1008.2
2022-10-05T23:11:05.409Z,1008.3
2022-10-05T23:14:05.396Z,1008.4
2022-10-05T23:16:05.379Z,1008.4
2022-10-05T23:18:05.359Z,1008.4
2022-10-05T23:20:05.367Z,1008.4
2022-10-05T23:22:05.364Z,1008.5
2022-10-05T23:25:05.345Z,1008.5
2022-10-05T23:28:05.415Z,1008.5
2022-10-05T23:30:05.381Z,1008.5
2022-10-05T23:33:05.376Z,1008.7
2022-10-05T23:35:05.365Z,1008.6
2022-10-05T23:38:05.354Z,1008.6
2022-10-05T23:40:05.369Z,1008.6
2022-10-05T23:42:05.875Z,1008.6
2022-10-05T23:45:05.353Z,1008.6
2022-10-05T23:47:05.363Z,1008.8
2022-10-05T23:49:05.395Z,1008.7
2022-10-05T23:51:05.376Z,1008.8
2022-10-05T23:54:05.378Z,1008.8
2022-10-05T23:57:05.368Z,1008.9
